Time;durP1;ratioP1;P1;durP2;ratioP2;P2;SDS_P1;SDS_P2;PMS_P1;PMS_P2;Temp;Humidity;BMP_temperature;BMP_pressure;BME280_temperature;BME280_humidity;BME280_pressure;Samples;Min_cycle;Max_cycle;Signal;HPM_P1;HPM_P2
2022/06/19 00:00:53;;;;;;;6.50;3.10;;;;;;;;;;4939846;29;20074;-72
2022/06/19 00:03:22;;;;;;;6.07;3.20;;;;;;;;;;4938842;29;20039;-72
2022/06/19 00:05:48;;;;;;;6.95;3.33;;;;;;;;;;4938367;29;20128;-72
2022/06/19 00:08:14;;;;;;;5.88;3.17;;;;;;;;;;4938187;29;20643;-72
2022/06/19 00:10:40;;;;;;;6.05;2.90;;;;;;;;;;4938977;29;20522;-72
2022/06/19 00:13:06;;;;;;;5.55;3.55;;;;;;;;;;4939143;29;20054;-72
2022/06/19 00:15:32;;;;;;;8.05;3.45;;;;;;;;;;4939182;29;20040;-72
2022/06/19 00:17:58;;;;;;;4.93;3.50;;;;;;;;;;4939378;29;20043;-72
2022/06/19 00:20:24;;;;;;;10.20;3.65;;;;;;;;;;4939248;29;20071;-72
2022/06/19 00:22:50;;;;;;;8.95;3.28;;;;;;;;;;4939721;29;20546;-72
2022/06/19 00:25:17;;;;;;;7.30;3.42;;;;;;;;;;4939152;29;20054;-72
2022/06/19 00:27:43;;;;;;;6.88;3.85;;;;;;;;;;4938863;29;20082;-72
2022/06/19 00:30:11;;;;;;;6.88;3.50;;;;;;;;;;4939297;29;20491;-72
2022/06/19 00:32:37;;;;;;;5.05;3.70;;;;;;;;;;4938567;29;20044;-72
2022/06/19 00:35:04;;;;;;;8.43;3.38;;;;;;;;;;4938859;29;20090;-72
2022/06/19 00:37:31;;;;;;;7.07;3.50;;;;;;;;;;4939109;29;20051;-72
2022/06/19 00:39:57;;;;;;;5.22;3.45;;;;;;;;;;4939063;29;20075;-72
2022/06/19 00:42:24;;;;;;;8.85;3.40;;;;;;;;;;4938696;29;20394;-72
2022/06/19 00:44:53;;;;;;;7.32;3.47;;;;;;;;;;4938667;29;20039;-72
2022/06/19 00:47:21;;;;;;;9.52;3.72;;;;;;;;;;4938969;29;20047;-72
2022/06/19 00:49:50;;;;;;;10.10;4.32;;;;;;;;;;4938979;29;20130;-72
2022/06/19 00:52:18;;;;;;;5.78;3.45;;;;;;;;;;4938541;29;20047;-72
2022/06/19 00:54:49;;;;;;;8.68;3.95;;;;;;;;;;4938106;29;20052;-73
2022/06/19 00:57:16;;;;;;;6.45;3.75;;;;;;;;;;4939469;29;20047;-72
2022/06/19 00:59:43;;;;;;;10.50;3.67;;;;;;;;;;4938659;29;20491;-72
2022/06/19 01:02:10;;;;;;;9.27;4.10;;;;;;;;;;4938508;29;20043;-72
2022/06/19 01:04:41;;;;;;;7.75;3.50;;;;;;;;;;4938584;29;20514;-72
2022/06/19 01:07:08;;;;;;;8.13;3.78;;;;;;;;;;4938134;29;20051;-72
2022/06/19 01:09:34;;;;;;;4.97;3.38;;;;;;;;;;4938594;29;20078;-72
2022/06/19 01:12:02;;;;;;;4.53;3.20;;;;;;;;;;4938162;29;20048;-72
2022/06/19 01:14:28;;;;;;;8.20;4.05;;;;;;;;;;4938271;29;20042;-72
2022/06/19 01:16:54;;;;;;;4.60;3.22;;;;;;;;;;4938349;29;20043;-72
2022/06/19 01:19:23;;;;;;;8.60;3.65;;;;;;;;;;4938708;29;20036;-72
2022/06/19 01:21:53;;;;;;;6.40;3.22;;;;;;;;;;4938535;29;20040;-72
2022/06/19 01:24:28;;;;;;;9.68;3.65;;;;;;;;;;4938013;29;20036;-72
2022/06/19 01:26:59;;;;;;;9.13;3.90;;;;;;;;;;4938168;29;20127;-72
2022/06/19 01:29:27;;;;;;;7.00;3.53;;;;;;;;;;4938305;29;20118;-73
2022/06/19 01:31:55;;;;;;;6.40;3.88;;;;;;;;;;4938078;29;20036;-72
2022/06/19 01:34:38;;;;;;;10.52;3.42;;;;;;;;;;4937966;29;20110;-72
2022/06/19 01:37:04;;;;;;;5.78;4.07;;;;;;;;;;4938287;29;20082;-73
2022/06/19 01:39:34;;;;;;;9.43;3.92;;;;;;;;;;4938089;29;20047;-72
2022/06/19 01:42:02;;;;;;;7.88;4.53;;;;;;;;;;4937632;29;20051;-73
2022/06/19 01:44:28;;;;;;;7.57;3.70;;;;;;;;;;4937717;29;20083;-73
2022/06/19 01:46:55;;;;;;;6.05;3.55;;;;;;;;;;4937779;29;20044;-72
2022/06/19 01:49:21;;;;;;;6.82;4.03;;;;;;;;;;4920865;29;20414;-72
2022/06/19 01:51:47;;;;;;;11.55;4.20;;;;;;;;;;4937750;29;20051;-72
2022/06/19 01:54:19;;;;;;;8.75;4.10;;;;;;;;;;4937194;29;20047;-73
2022/06/19 01:56:46;;;;;;;14.27;4.63;;;;;;;;;;4937418;29;20074;-72
2022/06/19 01:59:12;;;;;;;7.78;3.97;;;;;;;;;;4938014;29;20127;-72
2022/06/19 02:01:39;;;;;;;13.60;4.32;;;;;;;;;;4937553;29;20043;-73
2022/06/19 02:04:06;;;;;;;7.65;3.80;;;;;;;;;;4937571;29;20044;-72
2022/06/19 02:06:35;;;;;;;9.15;3.92;;;;;;;;;;4937491;29;20047;-72
2022/06/19 02:09:02;;;;;;;8.05;4.07;;;;;;;;;;4937321;29;20047;-72
2022/06/19 02:11:29;;;;;;;9.10;3.92;;;;;;;;;;4937465;29;20095;-72
2022/06/19 02:13:58;;;;;;;7.57;3.40;;;;;;;;;;4937163;29;20051;-72
2022/06/19 02:16:25;;;;;;;8.57;4.07;;;;;;;;;;4937322;29;20567;-72
2022/06/19 02:18:52;;;;;;;5.80;3.92;;;;;;;;;;4937313;29;20074;-72
2022/06/19 02:21:21;;;;;;;9.40;4.60;;;;;;;;;;4937763;29;20035;-72
2022/06/19 02:23:48;;;;;;;9.90;3.97;;;;;;;;;;4937172;29;20106;-72
2022/06/19 02:26:14;;;;;;;9.07;4.03;;;;;;;;;;4937221;29;20130;-73
2022/06/19 02:28:42;;;;;;;9.57;4.18;;;;;;;;;;4937307;29;20127;-72
2022/06/19 02:31:08;;;;;;;11.43;4.25;;;;;;;;;;4937512;29;20043;-72
2022/06/19 02:33:41;;;;;;;8.70;3.88;;;;;;;;;;4937269;29;20055;-72
2022/06/19 02:36:25;;;;;;;8.00;3.95;;;;;;;;;;4937793;29;20562;-73
2022/06/19 02:38:51;;;;;;;7.50;4.00;;;;;;;;;;4937041;29;20098;-73
2022/06/19 02:41:20;;;;;;;8.60;3.83;;;;;;;;;;4937227;29;20055;-73
2022/06/19 02:43:47;;;;;;;7.63;3.80;;;;;;;;;;4937074;29;20046;-72
2022/06/19 02:46:13;;;;;;;8.05;3.65;;;;;;;;;;4936922;29;20491;-72
2022/06/19 02:48:39;;;;;;;11.30;4.00;;;;;;;;;;4937140;29;20055;-73
2022/06/19 02:51:05;;;;;;;8.75;4.10;;;;;;;;;;4937699;29;20055;-73
2022/06/19 02:53:32;;;;;;;6.75;3.92;;;;;;;;;;4936603;29;20036;-73
2022/06/19 02:55:58;;;;;;;8.05;4.00;;;;;;;;;;4937757;29;20094;-73
2022/06/19 02:58:24;;;;;;;9.63;4.15;;;;;;;;;;4941210;29;20051;-72
2022/06/19 03:00:51;;;;;;;11.02;4.38;;;;;;;;;;4941431;29;20043;-73
2022/06/19 03:03:28;;;;;;;6.97;3.78;;;;;;;;;;4940761;29;20047;-72
2022/06/19 03:05:54;;;;;;;9.48;4.18;;;;;;;;;;4940726;29;20047;-73
2022/06/19 03:08:20;;;;;;;5.90;3.78;;;;;;;;;;4940463;29;20510;-73
2022/06/19 03:10:46;;;;;;;9.43;4.28;;;;;;;;;;4941249;29;20075;-72
2022/06/19 03:13:12;;;;;;;7.82;3.92;;;;;;;;;;4940648;29;20106;-72
2022/06/19 03:15:39;;;;;;;6.82;4.00;;;;;;;;;;4940556;29;20035;-73
2022/06/19 03:18:05;;;;;;;8.25;4.32;;;;;;;;;;4940790;29;20110;-72
2022/06/19 03:20:31;;;;;;;4.40;4.00;;;;;;;;;;4940853;29;20044;-73
2022/06/19 03:22:57;;;;;;;7.55;4.43;;;;;;;;;;4940381;29;20043;-72
2022/06/19 03:25:23;;;;;;;6.55;4.35;;;;;;;;;;4940584;29;20068;-72
2022/06/19 03:27:50;;;;;;;9.98;4.25;;;;;;;;;;4940554;29;20048;-72
2022/06/19 03:30:17;;;;;;;5.15;3.67;;;;;;;;;;4940464;29;20503;-72
2022/06/19 03:32:43;;;;;;;7.90;3.97;;;;;;;;;;4940557;29;20066;-72
2022/06/19 03:35:09;;;;;;;7.55;4.20;;;;;;;;;;4940530;29;20043;-72
2022/06/19 03:37:36;;;;;;;11.55;4.38;;;;;;;;;;4941042;29;20051;-72
2022/06/19 03:40:02;;;;;;;12.45;5.05;;;;;;;;;;4940435;29;20055;-72
2022/06/19 03:42:28;;;;;;;10.10;4.80;;;;;;;;;;4940372;29;20119;-73
2022/06/19 03:44:54;;;;;;;9.35;4.47;;;;;;;;;;4940316;29;20077;-72
2022/06/19 03:47:24;;;;;;;6.55;4.55;;;;;;;;;;4940225;29;20051;-73
2022/06/19 03:49:50;;;;;;;7.60;4.35;;;;;;;;;;4942501;29;20051;-72
2022/06/19 03:52:17;;;;;;;13.20;4.40;;;;;;;;;;4937893;29;20047;-72
2022/06/19 03:54:43;;;;;;;8.40;4.20;;;;;;;;;;4937731;29;20055;-73
2022/06/19 03:57:11;;;;;;;9.95;4.82;;;;;;;;;;4937882;29;20036;-73
2022/06/19 03:59:37;;;;;;;9.15;4.43;;;;;;;;;;4939376;29;20055;-72
2022/06/19 04:02:04;;;;;;;9.45;4.47;;;;;;;;;;4939712;29;20046;-73
2022/06/19 04:04:30;;;;;;;10.73;4.25;;;;;;;;;;4939695;29;20043;-73
2022/06/19 04:06:57;;;;;;;9.98;4.75;;;;;;;;;;4939751;29;20102;-72
2022/06/19 04:09:23;;;;;;;14.07;4.85;;;;;;;;;;4938586;29;20138;-73
2022/06/19 04:11:49;;;;;;;5.22;4.55;;;;;;;;;;4939264;29;20499;-72
2022/06/19 04:14:15;;;;;;;11.30;4.35;;;;;;;;;;4939406;29;20044;-73
2022/06/19 04:16:45;;;;;;;10.30;4.32;;;;;;;;;;4939207;29;20044;-73
2022/06/19 04:19:11;;;;;;;8.60;4.47;;;;;;;;;;4939168;29;20075;-72
2022/06/19 04:21:46;;;;;;;12.15;4.63;;;;;;;;;;4939420;29;20098;-73
2022/06/19 04:24:14;;;;;;;9.02;4.22;;;;;;;;;;4939245;29;20051;-72
2022/06/19 04:26:40;;;;;;;10.45;4.57;;;;;;;;;;4939261;29;20043;-73
2022/06/19 04:29:08;;;;;;;9.40;4.72;;;;;;;;;;4939257;29;20046;-73
2022/06/19 04:31:34;;;;;;;9.20;4.43;;;;;;;;;;4939141;29;20040;-72
2022/06/19 04:34:00;;;;;;;6.70;4.22;;;;;;;;;;4939037;29;20122;-73
2022/06/19 04:36:28;;;;;;;8.98;4.43;;;;;;;;;;4922067;29;20376;-73
2022/06/19 04:38:56;;;;;;;6.25;3.67;;;;;;;;;;4938907;29;20099;-73
2022/06/19 04:41:36;;;;;;;6.93;3.78;;;;;;;;;;4939054;29;20054;-72
2022/06/19 04:44:02;;;;;;;9.02;4.45;;;;;;;;;;4939538;29;20044;-72
2022/06/19 04:46:28;;;;;;;8.63;4.18;;;;;;;;;;4938550;29;20480;-72
2022/06/19 04:48:54;;;;;;;7.30;4.35;;;;;;;;;;4938603;29;20495;-73
2022/06/19 04:51:21;;;;;;;9.55;4.05;;;;;;;;;;4938846;29;20070;-73
2022/06/19 04:53:47;;;;;;;7.43;4.05;;;;;;;;;;4938311;29;20060;-73
2022/06/19 04:56:15;;;;;;;7.55;3.72;;;;;;;;;;4939122;29;20035;-72
2022/06/19 04:58:41;;;;;;;8.77;4.53;;;;;;;;;;4938657;29;20039;-72
2022/06/19 05:01:08;;;;;;;8.13;3.97;;;;;;;;;;4939262;29;20051;-72
2022/06/19 05:03:34;;;;;;;8.88;4.07;;;;;;;;;;4938976;29;20502;-73
2022/06/19 05:06:01;;;;;;;5.90;3.85;;;;;;;;;;4938821;29;20098;-72
2022/06/19 05:08:27;;;;;;;7.15;4.18;;;;;;;;;;4938264;29;20098;-73
2022/06/19 05:10:53;;;;;;;9.32;4.32;;;;;;;;;;4939068;29;20054;-72
2022/06/19 05:13:21;;;;;;;5.80;4.18;;;;;;;;;;4938680;29;20043;-73
2022/06/19 05:15:48;;;;;;;8.85;4.07;;;;;;;;;;4938375;29;20049;-73
2022/06/19 05:18:14;;;;;;;9.95;4.40;;;;;;;;;;4938347;29;20051;-73
2022/06/19 05:20:41;;;;;;;6.35;4.25;;;;;;;;;;4938255;29;20052;-73
2022/06/19 05:25:43;;;;;;;8.30;4.35;;;;;;;;;;5147202;23;20327;-72
2022/06/19 05:28:09;;;;;;;7.95;4.22;;;;;;;;;;4969899;28;20047;-72
2022/06/19 05:30:35;;;;;;;8.77;4.32;;;;;;;;;;4957312;29;20142;-72
2022/06/19 05:33:01;;;;;;;11.48;3.80;;;;;;;;;;4972644;28;20047;-72
2022/06/19 05:35:27;;;;;;;7.32;4.40;;;;;;;;;;4963937;28;20054;-73
2022/06/19 05:37:53;;;;;;;5.75;3.90;;;;;;;;;;4957172;29;20129;-73
2022/06/19 05:40:20;;;;;;;9.23;3.85;;;;;;;;;;4963624;28;20043;-72
2022/06/19 05:42:49;;;;;;;11.68;4.30;;;;;;;;;;4957302;28;20114;-72
2022/06/19 05:45:15;;;;;;;6.78;3.80;;;;;;;;;;4958497;28;20042;-72
2022/06/19 05:47:41;;;;;;;7.95;3.90;;;;;;;;;;4964682;28;20505;-72
2022/06/19 05:50:07;;;;;;;9.43;4.25;;;;;;;;;;4968678;28;20054;-72
2022/06/19 05:52:34;;;;;;;7.97;4.07;;;;;;;;;;4975447;28;20065;-72
2022/06/19 05:55:00;;;;;;;8.95;4.15;;;;;;;;;;4976063;28;20497;-72
2022/06/19 05:57:27;;;;;;;8.27;4.18;;;;;;;;;;4975433;28;20479;-72
2022/06/19 05:59:54;;;;;;;5.93;3.88;;;;;;;;;;4976055;28;20042;-72
2022/06/19 06:02:23;;;;;;;10.50;4.15;;;;;;;;;;4975966;28;20037;-72
2022/06/19 06:04:49;;;;;;;10.32;4.15;;;;;;;;;;4971518;28;20066;-72
2022/06/19 06:07:15;;;;;;;10.05;4.22;;;;;;;;;;4975419;28;20042;-72
2022/06/19 06:09:41;;;;;;;7.40;3.90;;;;;;;;;;4961191;28;20055;-72
2022/06/19 06:12:08;;;;;;;5.43;4.05;;;;;;;;;;4959511;28;20043;-73
2022/06/19 06:14:34;;;;;;;3.95;3.55;;;;;;;;;;4964051;28;20047;-73
2022/06/19 06:17:00;;;;;;;8.90;3.65;;;;;;;;;;4956471;29;20047;-72
2022/06/19 06:19:26;;;;;;;5.07;3.47;;;;;;;;;;4959777;28;20043;-70
2022/06/19 06:21:52;;;;;;;6.68;3.65;;;;;;;;;;4976365;28;20043;-69
2022/06/19 06:24:18;;;;;;;7.35;3.70;;;;;;;;;;4975640;28;20126;-70
2022/06/19 06:26:45;;;;;;;6.82;3.25;;;;;;;;;;4975079;28;20053;-70
2022/06/19 06:29:11;;;;;;;5.22;3.78;;;;;;;;;;4975219;28;20564;-70
2022/06/19 06:31:37;;;;;;;7.75;3.53;;;;;;;;;;4972981;28;20074;-70
2022/06/19 06:34:04;;;;;;;8.15;3.47;;;;;;;;;;4973771;28;20074;-70
2022/06/19 06:36:31;;;;;;;6.28;3.33;;;;;;;;;;4974734;28;20501;-70
2022/06/19 06:38:57;;;;;;;6.72;3.28;;;;;;;;;;4974455;28;20397;-70
2022/06/19 06:41:23;;;;;;;6.40;3.45;;;;;;;;;;4974707;28;20097;-70
2022/06/19 06:43:50;;;;;;;8.15;3.20;;;;;;;;;;4974735;28;20043;-70
2022/06/19 06:46:20;;;;;;;7.47;3.70;;;;;;;;;;4974629;28;20050;-70
2022/06/19 06:48:47;;;;;;;6.55;3.40;;;;;;;;;;4973091;28;20050;-70
2022/06/19 06:51:14;;;;;;;6.35;3.67;;;;;;;;;;4974593;28;20093;-70
2022/06/19 06:53:40;;;;;;;6.38;3.00;;;;;;;;;;4974355;28;20050;-70
2022/06/19 06:56:08;;;;;;;7.38;2.60;;;;;;;;;;4974606;28;20042;-70
2022/06/19 06:58:34;;;;;;;8.85;3.42;;;;;;;;;;4974683;28;20118;-70
2022/06/19 07:01:13;;;;;;;7.82;3.47;;;;;;;;;;4974657;28;20038;-70
2022/06/19 07:03:41;;;;;;;8.93;3.42;;;;;;;;;;4974498;28;20573;-70
2022/06/19 07:06:07;;;;;;;4.45;3.13;;;;;;;;;;4974723;28;20042;-70
2022/06/19 07:08:33;;;;;;;6.03;3.63;;;;;;;;;;4974180;28;20120;-70
2022/06/19 07:10:59;;;;;;;7.82;3.13;;;;;;;;;;4975000;28;20098;-70
2022/06/19 07:13:26;;;;;;;11.35;3.17;;;;;;;;;;4973162;28;20066;-70
2022/06/19 07:15:52;;;;;;;5.90;3.00;;;;;;;;;;4970324;28;20062;-71
2022/06/19 07:18:19;;;;;;;9.73;3.60;;;;;;;;;;4955759;29;20370;-70
2022/06/19 07:20:46;;;;;;;5.70;2.88;;;;;;;;;;4968235;28;20549;-70
2022/06/19 07:23:12;;;;;;;8.60;3.08;;;;;;;;;;4974328;28;20042;-71
2022/06/19 07:25:38;;;;;;;8.70;3.03;;;;;;;;;;4973964;28;20050;-71
2022/06/19 07:28:04;;;;;;;4.55;2.78;;;;;;;;;;4974193;28;20043;-71
2022/06/19 07:30:31;;;;;;;5.75;2.88;;;;;;;;;;4974239;28;20051;-71
2022/06/19 07:32:57;;;;;;;6.47;2.80;;;;;;;;;;4972720;28;20038;-71
2022/06/19 07:35:24;;;;;;;7.50;3.00;;;;;;;;;;4974127;28;20065;-71
2022/06/19 07:37:51;;;;;;;5.65;3.30;;;;;;;;;;4974179;28;20405;-71
2022/06/19 07:40:19;;;;;;;7.22;3.25;;;;;;;;;;4971297;28;20041;-70
2022/06/19 07:42:45;;;;;;;8.48;2.60;;;;;;;;;;4975287;28;20037;-71
2022/06/19 07:45:12;;;;;;;7.45;3.08;;;;;;;;;;4977860;28;20043;-71
2022/06/19 07:50:23;;;;;;;5.72;3.30;;;;;;;;;;4977986;28;20049;-70
2022/06/19 07:52:50;;;;;;;10.55;3.17;;;;;;;;;;4967188;28;20038;-70
2022/06/19 07:55:18;;;;;;;5.35;2.75;;;;;;;;;;4976709;28;20073;-70
2022/06/19 07:57:44;;;;;;;5.80;2.92;;;;;;;;;;4977721;28;20078;-70
2022/06/19 08:00:16;;;;;;;7.07;2.92;;;;;;;;;;4973724;28;20034;-70
2022/06/19 08:02:43;;;;;;;6.53;2.97;;;;;;;;;;4961075;28;20061;-70
2022/06/19 08:05:11;;;;;;;7.05;2.72;;;;;;;;;;4966802;28;20126;-70
2022/06/19 08:07:38;;;;;;;5.72;2.78;;;;;;;;;;4968907;28;20039;-70
2022/06/19 08:10:05;;;;;;;8.40;2.92;;;;;;;;;;4976245;28;20105;-70
2022/06/19 08:12:31;;;;;;;6.82;3.20;;;;;;;;;;4957827;28;20066;-70
2022/06/19 08:14:57;;;;;;;7.60;3.30;;;;;;;;;;4959513;28;20054;-70
2022/06/19 08:17:23;;;;;;;5.47;2.58;;;;;;;;;;4977310;28;20046;-70
2022/06/19 08:19:49;;;;;;;5.43;2.50;;;;;;;;;;4965395;28;20518;-70
2022/06/19 08:22:15;;;;;;;4.72;2.65;;;;;;;;;;4975979;28;20046;-70
2022/06/19 08:24:41;;;;;;;8.23;2.80;;;;;;;;;;4972355;28;20059;-71
2022/06/19 08:27:08;;;;;;;6.75;2.67;;;;;;;;;;4967422;28;20058;-70
2022/06/19 08:29:34;;;;;;;5.28;2.53;;;;;;;;;;4976727;28;20137;-70
2022/06/19 08:32:01;;;;;;;4.80;2.30;;;;;;;;;;4972417;28;20047;-70
2022/06/19 08:34:28;;;;;;;4.47;2.22;;;;;;;;;;4957654;29;20046;-70
2022/06/19 08:36:55;;;;;;;6.88;2.38;;;;;;;;;;4957940;29;20114;-70
2022/06/19 08:39:21;;;;;;;3.60;2.00;;;;;;;;;;4958567;28;20054;-70
2022/06/19 08:42:03;;;;;;;5.15;2.47;;;;;;;;;;4971929;28;20035;-71
2022/06/19 08:44:29;;;;;;;3.95;2.38;;;;;;;;;;4968324;28;20042;-71
2022/06/19 08:47:01;;;;;;;6.32;2.50;;;;;;;;;;4976635;28;20126;-71
2022/06/19 08:49:43;;;;;;;9.35;2.67;;;;;;;;;;4959329;28;20047;-71
2022/06/19 08:52:15;;;;;;;6.45;2.42;;;;;;;;;;4958532;28;20043;-71
2022/06/19 08:54:47;;;;;;;6.35;2.38;;;;;;;;;;4964991;28;20509;-71
2022/06/19 08:57:13;;;;;;;6.85;2.38;;;;;;;;;;4960510;28;20043;-71
2022/06/19 08:59:43;;;;;;;4.22;2.00;;;;;;;;;;4969136;28;20406;-71
2022/06/19 09:02:28;;;;;;;4.43;1.98;;;;;;;;;;4969986;28;20074;-71
2022/06/19 09:08:04;;;;;;;5.72;2.35;;;;;;;;;;4973952;28;20120;-71
2022/06/19 09:10:37;;;;;;;4.93;2.13;;;;;;;;;;4975420;28;20097;-73
2022/06/19 09:13:28;;;;;;;7.35;2.20;;;;;;;;;;4976287;28;20111;-69
2022/06/19 09:16:02;;;;;;;9.40;2.58;;;;;;;;;;4976177;28;20042;-70
2022/06/19 09:18:42;;;;;;;6.28;2.33;;;;;;;;;;4976426;28;20038;-69
2022/06/19 09:21:10;;;;;;;5.75;2.25;;;;;;;;;;4976111;28;20039;-69
2022/06/19 09:24:05;;;;;;;6.75;2.28;;;;;;;;;;4976153;28;20055;-69
2022/06/19 09:26:31;;;;;;;6.05;2.08;;;;;;;;;;4960429;28;20532;-70
2022/06/19 09:28:57;;;;;;;4.72;2.20;;;;;;;;;;4971380;28;20053;-69
2022/06/19 09:31:38;;;;;;;7.22;2.17;;;;;;;;;;4975188;28;20039;-70
2022/06/19 09:34:07;;;;;;;6.13;2.05;;;;;;;;;;4973041;28;20043;-69
2022/06/19 09:36:33;;;;;;;5.60;2.33;;;;;;;;;;4974558;28;20504;-70
2022/06/19 09:39:13;;;;;;;9.15;2.42;;;;;;;;;;4975411;28;20100;-70
2022/06/19 09:41:48;;;;;;;5.57;1.90;;;;;;;;;;4975420;28;20039;-70
2022/06/19 09:44:14;;;;;;;4.00;2.15;;;;;;;;;;4974558;28;20081;-70
2022/06/19 09:46:53;;;;;;;4.75;2.30;;;;;;;;;;4975645;28;20038;-70
2022/06/19 09:49:25;;;;;;;8.07;2.58;;;;;;;;;;4959902;28;20054;-70
2022/06/19 09:51:51;;;;;;;6.70;2.40;;;;;;;;;;4968162;28;20054;-72
2022/06/19 09:54:26;;;;;;;4.60;2.10;;;;;;;;;;4966339;28;20123;-70
2022/06/19 09:56:59;;;;;;;8.55;2.17;;;;;;;;;;4957948;28;20054;-71
2022/06/19 09:59:39;;;;;;;7.97;2.60;;;;;;;;;;4967211;28;20050;-70
2022/06/19 10:02:07;;;;;;;8.50;2.67;;;;;;;;;;4956856;29;20102;-71
2022/06/19 10:04:43;;;;;;;3.92;2.25;;;;;;;;;;4972165;28;20043;-71
2022/06/19 10:07:16;;;;;;;8.88;2.60;;;;;;;;;;4974779;28;20043;-71
2022/06/19 10:10:14;;;;;;;11.23;2.92;;;;;;;;;;4973115;28;20051;-70
2022/06/19 10:12:42;;;;;;;5.50;2.65;;;;;;;;;;4919802;28;20098;-70
2022/06/19 10:15:23;;;;;;;7.93;3.03;;;;;;;;;;4965532;28;20071;-70
2022/06/19 10:17:53;;;;;;;10.35;2.63;;;;;;;;;;4969460;28;20057;-70
2022/06/19 10:20:21;;;;;;;10.10;2.92;;;;;;;;;;4960519;28;20493;-69
2022/06/19 10:23:06;;;;;;;8.40;2.63;;;;;;;;;;4969682;28;20069;-71
2022/06/19 10:25:32;;;;;;;12.68;2.78;;;;;;;;;;4961310;28;20170;-70
2022/06/19 10:28:16;;;;;;;9.85;2.78;;;;;;;;;;4972274;28;20050;-70
2022/06/19 10:31:00;;;;;;;7.53;3.03;;;;;;;;;;4970640;28;20129;-70
2022/06/19 10:33:38;;;;;;;6.70;2.97;;;;;;;;;;4971352;28;20049;-70
2022/06/19 10:36:14;;;;;;;6.32;2.63;;;;;;;;;;4964508;28;20043;-70
2022/06/19 10:38:59;;;;;;;8.07;3.05;;;;;;;;;;4957000;28;20074;-70
2022/06/19 10:44:23;;;;;;;7.97;2.75;;;;;;;;;;4973674;28;20042;-70
2022/06/19 10:46:52;;;;;;;8.50;2.88;;;;;;;;;;4968725;28;20046;-71
2022/06/19 10:49:41;;;;;;;9.27;2.28;;;;;;;;;;4959925;28;20070;-70
2022/06/19 10:52:19;;;;;;;4.55;3.03;;;;;;;;;;4962634;28;20051;-70
2022/06/19 10:54:51;;;;;;;6.75;2.80;;;;;;;;;;4970310;28;20050;-70
2022/06/19 10:57:25;;;;;;;9.35;2.83;;;;;;;;;;4955544;28;20510;-70
2022/06/19 10:59:51;;;;;;;8.43;2.58;;;;;;;;;;4964848;28;20035;-71
2022/06/19 11:05:18;;;;;;;8.45;3.00;;;;;;;;;;4968133;28;20124;-70
2022/06/19 11:07:44;;;;;;;8.88;2.60;;;;;;;;;;4958152;28;20054;-71
2022/06/19 11:10:31;;;;;;;4.55;2.50;;;;;;;;;;4963413;28;20082;-71
2022/06/19 11:12:58;;;;;;;10.63;3.08;;;;;;;;;;4957355;28;20047;-71
2022/06/19 11:15:29;;;;;;;13.43;2.80;;;;;;;;;;4966882;28;20105;-70
2022/06/19 11:18:14;;;;;;;8.35;2.70;;;;;;;;;;4972724;28;20513;-70
2022/06/19 11:20:43;;;;;;;8.35;3.17;;;;;;;;;;4969000;28;20114;-71
2022/06/19 11:23:30;;;;;;;7.53;2.43;;;;;;;;;;4967734;28;20530;-70
2022/06/19 11:26:20;;;;;;;16.77;8.40;;;;;;;;;;4969695;28;20298;-70
2022/06/19 11:29:07;;;;;;;9.32;3.72;;;;;;;;;;4931467;28;20058;-71
2022/06/19 11:31:34;;;;;;;9.07;3.50;;;;;;;;;;4977870;28;20046;-70
2022/06/19 11:34:06;;;;;;;13.57;5.10;;;;;;;;;;4966265;28;20050;-71
2022/06/19 11:36:39;;;;;;;8.30;3.85;;;;;;;;;;4967111;28;20049;-70
2022/06/19 11:39:24;;;;;;;8.82;4.07;;;;;;;;;;4964332;28;20126;-71
2022/06/19 11:41:50;;;;;;;8.68;5.72;;;;;;;;;;4960898;28;20035;-70
2022/06/19 11:44:18;;;;;;;10.15;3.08;;;;;;;;;;4972019;28;20556;-70
2022/06/19 11:46:51;;;;;;;9.82;2.85;;;;;;;;;;4974404;28;20170;-70
2022/06/19 11:49:17;;;;;;;10.32;4.70;;;;;;;;;;4975381;28;20133;-70
2022/06/19 11:51:45;;;;;;;9.57;4.50;;;;;;;;;;4977079;28;20042;-72
2022/06/19 11:54:14;;;;;;;8.50;3.45;;;;;;;;;;4976200;28;20587;-71
2022/06/19 11:56:41;;;;;;;10.70;3.60;;;;;;;;;;4976377;28;20038;-71
2022/06/19 11:59:20;;;;;;;9.80;2.97;;;;;;;;;;4976107;28;20125;-71
2022/06/19 12:01:47;;;;;;;12.65;3.60;;;;;;;;;;4975033;28;20050;-71
2022/06/19 12:04:24;;;;;;;8.10;2.80;;;;;;;;;;4974430;28;20528;-71
2022/06/19 12:07:04;;;;;;;11.00;3.17;;;;;;;;;;4970663;28;20047;-72
2022/06/19 12:09:33;;;;;;;10.48;2.97;;;;;;;;;;4975000;28;20050;-71
2022/06/19 12:12:07;;;;;;;11.03;3.17;;;;;;;;;;4975248;28;20090;-72
2022/06/19 12:14:53;;;;;;;7.78;2.58;;;;;;;;;;4976172;28;20109;-71
2022/06/19 12:17:23;;;;;;;13.18;3.53;;;;;;;;;;4974817;28;20050;-72
2022/06/19 12:19:52;;;;;;;9.52;3.08;;;;;;;;;;4976131;28;20041;-72
2022/06/19 12:22:20;;;;;;;7.28;2.97;;;;;;;;;;4975958;28;20457;-71
2022/06/19 12:24:51;;;;;;;7.43;2.92;;;;;;;;;;4957966;28;20059;-72
2022/06/19 12:27:19;;;;;;;9.45;2.88;;;;;;;;;;4957733;29;20438;-72
2022/06/19 12:29:48;;;;;;;8.35;3.38;;;;;;;;;;4956204;28;20102;-72
2022/06/19 12:32:23;;;;;;;10.60;3.58;;;;;;;;;;4972693;28;20494;-72
2022/06/19 12:34:51;;;;;;;9.98;3.00;;;;;;;;;;4957499;29;20039;-72
2022/06/19 12:37:22;;;;;;;8.45;3.28;;;;;;;;;;4964464;28;20045;-72
2022/06/19 12:39:49;;;;;;;12.48;3.47;;;;;;;;;;4976501;28;20042;-72
2022/06/19 12:42:46;;;;;;;10.48;3.20;;;;;;;;;;4975692;28;20061;-72
2022/06/19 12:45:31;;;;;;;7.05;2.95;;;;;;;;;;4959149;28;20047;-72
2022/06/19 12:48:20;;;;;;;4.82;3.08;;;;;;;;;;4971641;28;20498;-72
2022/06/19 12:50:55;;;;;;;9.10;3.08;;;;;;;;;;4946705;28;20141;-71
2022/06/19 12:53:33;;;;;;;6.97;2.70;;;;;;;;;;4956964;29;20609;-71
2022/06/19 12:56:06;;;;;;;8.73;3.45;;;;;;;;;;4957567;29;20102;-72
2022/06/19 12:58:51;;;;;;;10.25;3.08;;;;;;;;;;4965935;28;20054;-71
2022/06/19 13:01:19;;;;;;;11.27;3.40;;;;;;;;;;4969589;28;20708;-78
2022/06/19 13:03:58;;;;;;;10.85;3.63;;;;;;;;;;4968928;28;20524;-76
2022/06/19 13:06:24;;;;;;;10.25;2.92;;;;;;;;;;4965977;28;20034;-76
2022/06/19 13:09:09;;;;;;;10.82;3.13;;;;;;;;;;4969780;28;20061;-77
2022/06/19 13:11:45;;;;;;;14.77;3.13;;;;;;;;;;4953535;28;20039;-73
2022/06/19 13:14:14;;;;;;;10.38;3.65;;;;;;;;;;4957597;28;20608;-73
2022/06/19 13:17:10;;;;;;;11.95;3.25;;;;;;;;;;4970904;28;20047;-76
2022/06/19 13:19:45;;;;;;;8.13;2.83;;;;;;;;;;4940921;28;20081;-77
2022/06/19 13:22:34;;;;;;;8.05;3.00;;;;;;;;;;4961552;28;20524;-73
2022/06/19 13:25:19;;;;;;;9.45;3.83;;;;;;;;;;4942242;29;20059;-73
2022/06/19 13:27:48;;;;;;;10.10;3.42;;;;;;;;;;4951152;29;20509;-73
2022/06/19 13:30:25;;;;;;;8.90;3.17;;;;;;;;;;4948082;29;20446;-73
2022/06/19 13:33:00;;;;;;;13.15;3.45;;;;;;;;;;4946396;29;20047;-82
2022/06/19 13:35:41;;;;;;;10.65;3.03;;;;;;;;;;4946413;29;20057;-77
2022/06/19 13:38:11;;;;;;;7.32;3.20;;;;;;;;;;4951914;29;20465;-80
2022/06/19 13:40:44;;;;;;;11.27;3.45;;;;;;;;;;4953423;28;20050;-80
2022/06/19 13:43:14;;;;;;;5.75;3.10;;;;;;;;;;4951237;28;20087;-79
2022/06/19 13:45:40;;;;;;;;;;;;;;;;;;4945360;28;20569;-74
2022/06/19 13:48:39;;;;;;;8.73;3.05;;;;;;;;;;4948514;29;20061;-76
2022/06/19 13:51:07;;;;;;;3.35;2.33;;;;;;;;;;4931765;28;20145;-73
2022/06/19 13:53:34;;;;;;;10.20;2.95;;;;;;;;;;4947445;28;20134;-73
2022/06/19 13:56:18;;;;;;;9.02;2.50;;;;;;;;;;4951968;29;20047;-74
2022/06/19 13:58:59;;;;;;;5.55;2.65;;;;;;;;;;4947735;28;20045;-73
2022/06/19 14:01:38;;;;;;;11.02;3.25;;;;;;;;;;4944691;28;20057;-74
2022/06/19 14:07:07;;;;;;;8.07;2.83;;;;;;;;;;4946403;29;20122;-73
2022/06/19 14:09:36;;;;;;;11.98;3.33;;;;;;;;;;4948491;29;20070;-74
2022/06/19 14:12:04;;;;;;;7.28;3.13;;;;;;;;;;4947512;28;20055;-73
2022/06/19 14:14:32;;;;;;;10.27;3.30;;;;;;;;;;4945151;28;20082;-73
2022/06/19 14:17:06;;;;;;;5.75;2.38;;;;;;;;;;4955308;28;20045;-73
2022/06/19 14:19:52;;;;;;;7.85;2.72;;;;;;;;;;4949253;29;20126;-73
2022/06/19 14:22:29;;;;;;;5.75;2.83;;;;;;;;;;4948798;29;20098;-75
2022/06/19 14:24:58;;;;;;;7.65;2.70;;;;;;;;;;4958772;28;20145;-75
2022/06/19 14:27:45;;;;;;;6.78;2.90;;;;;;;;;;4970950;28;20129;-74
2022/06/19 14:30:19;;;;;;;6.95;2.67;;;;;;;;;;4963377;28;20047;-74
2022/06/19 14:32:45;;;;;;;4.43;2.67;;;;;;;;;;4962637;28;20085;-74
2022/06/19 14:35:20;;;;;;;10.75;2.83;;;;;;;;;;4968553;28;20078;-74
2022/06/19 14:37:55;;;;;;;5.60;2.63;;;;;;;;;;4970675;28;20074;-74
2022/06/19 14:40:24;;;;;;;5.25;2.60;;;;;;;;;;4965751;28;20616;-75
2022/06/19 14:42:58;;;;;;;5.75;2.67;;;;;;;;;;4967063;28;20073;-75
2022/06/19 14:45:26;;;;;;;6.90;2.53;;;;;;;;;;4962605;28;20045;-74
2022/06/19 14:48:04;;;;;;;7.72;2.75;;;;;;;;;;4966619;28;20137;-76
2022/06/19 14:50:49;;;;;;;5.03;2.50;;;;;;;;;;4960986;28;20051;-76
2022/06/19 14:53:15;;;;;;;9.25;2.35;;;;;;;;;;4975394;28;20386;-75
2022/06/19 14:55:56;;;;;;;7.22;2.70;;;;;;;;;;4968480;28;20501;-75
2022/06/19 14:58:25;;;;;;;5.40;2.50;;;;;;;;;;4977084;28;20117;-75
2022/06/19 15:00:52;;;;;;;8.60;2.78;;;;;;;;;;4969358;28;20042;-73
2022/06/19 15:03:24;;;;;;;3.88;2.30;;;;;;;;;;4973375;28;20039;-73
2022/06/19 15:05:54;;;;;;;5.93;2.13;;;;;;;;;;4963259;28;20040;-74
2022/06/19 15:08:30;;;;;;;4.60;2.40;;;;;;;;;;4968503;28;20053;-72
2022/06/19 15:11:01;;;;;;;8.32;2.75;;;;;;;;;;4975843;28;20509;-71
2022/06/19 15:13:27;;;;;;;;;;;;;;;;;;4978857;28;20047;-72
2022/06/19 15:15:59;;;;;;;5.20;2.22;;;;;;;;;;4975889;28;21358;-71